createdAt,value
2022-12-05T00:00:48.565Z,15.87
2022-12-05T00:03:15.269Z,15.43
2022-12-05T00:05:42.372Z,14.17
2022-12-05T00:08:09.218Z,12.83
2022-12-05T00:10:40.374Z,18.37
2022-12-05T00:13:07.504Z,21.97
2022-12-05T00:15:41.274Z,12.40
2022-12-05T00:18:08.261Z,15.03
2022-12-05T00:20:35.086Z,14.93
2022-12-05T00:23:01.843Z,15.53
2022-12-05T00:25:28.774Z,11.57
2022-12-05T00:27:55.642Z,10.87
2022-12-05T00:30:22.561Z,12.33
2022-12-05T00:32:49.273Z,10.07
2022-12-05T00:35:16.235Z,15.20
2022-12-05T00:37:43.261Z,11.77
2022-12-05T00:40:10.511Z,12.83
2022-12-05T00:42:37.252Z,10.43
2022-12-05T00:45:05.757Z,12.13
2022-12-05T00:47:37.793Z,10.87
2022-12-05T00:50:05.630Z,10.83
2022-12-05T00:52:32.342Z,14.07
2022-12-05T00:54:59.064Z,8.57
2022-12-05T00:57:25.809Z,8.97
2022-12-05T00:59:52.552Z,10.50
2022-12-05T01:02:19.301Z,8.70
2022-12-05T01:04:46.029Z,9.20
2022-12-05T01:07:12.760Z,12.40
2022-12-05T01:09:39.535Z,16.33
2022-12-05T01:12:06.534Z,10.00
2022-12-05T01:14:33.275Z,8.03
2022-12-05T01:17:00.442Z,8.03
2022-12-05T01:19:30.014Z,11.97
2022-12-05T01:21:57.269Z,12.23
2022-12-05T01:24:25.440Z,14.90
2022-12-05T01:26:52.582Z,7.57
2022-12-05T01:29:21.889Z,8.63
2022-12-05T01:31:48.747Z,9.30
2022-12-05T01:34:17.187Z,7.87
2022-12-05T01:36:44.358Z,10.80
2022-12-05T01:39:12.434Z,12.20
2022-12-05T01:41:42.652Z,11.70
2022-12-05T01:44:12.656Z,9.97
2022-12-05T01:46:44.823Z,6.93
2022-12-05T01:49:18.263Z,14.53
2022-12-05T01:51:50.241Z,11.10
2022-12-05T01:54:18.637Z,8.17
2022-12-05T01:57:00.926Z,7.27
2022-12-05T01:59:31.723Z,13.30
2022-12-05T02:01:58.967Z,10.10
2022-12-05T02:04:27.736Z,14.03
2022-12-05T02:06:54.914Z,10.60
2022-12-05T02:09:23.582Z,12.03
2022-12-05T02:12:01.923Z,9.83
2022-12-05T02:15:01.927Z,13.10
2022-12-05T02:17:39.510Z,12.93
2022-12-05T02:20:44.693Z,5.87
2022-12-05T02:23:30.199Z,16.30
2022-12-05T02:26:08.194Z,16.03
2022-12-05T02:28:40.833Z,12.00
2022-12-05T02:31:30.699Z,9.63
2022-12-05T02:34:10.006Z,9.17
2022-12-05T02:36:45.919Z,8.53
2022-12-05T02:39:36.099Z,10.43
2022-12-05T02:42:29.953Z,12.40
2022-12-05T02:45:07.141Z,9.17
2022-12-05T02:47:38.803Z,13.80
2022-12-05T02:50:08.531Z,12.47
2022-12-05T02:52:36.235Z,12.03
2022-12-05T02:55:04.331Z,10.27
2022-12-05T02:57:32.011Z,13.23
2022-12-05T02:59:58.894Z,11.27
2022-12-05T03:02:29.668Z,13.13
2022-12-05T03:05:09.410Z,10.87
2022-12-05T03:07:37.647Z,11.03
2022-12-05T03:10:08.274Z,13.50
2022-12-05T03:12:42.349Z,13.50
2022-12-05T03:15:17.287Z,12.90
2022-12-05T03:17:51.681Z,12.03
2022-12-05T03:20:32.237Z,13.73
2022-12-05T03:23:18.511Z,11.83
2022-12-05T03:26:20.620Z,14.27
2022-12-05T03:29:21.047Z,12.93
2022-12-05T03:31:50.638Z,13.20
2022-12-05T03:34:32.449Z,13.27
2022-12-05T03:37:07.146Z,12.83
2022-12-05T03:39:39.087Z,13.90
2022-12-05T03:42:19.145Z,11.23
2022-12-05T03:45:00.714Z,13.60
2022-12-05T03:47:41.861Z,15.03
2022-12-05T03:50:36.840Z,14.70
2022-12-05T03:53:26.668Z,16.03
2022-12-05T03:56:06.300Z,13.83
2022-12-05T03:58:43.656Z,12.57
2022-12-05T04:01:15.848Z,12.23
2022-12-05T04:03:51.660Z,14.70
2022-12-05T04:06:26.739Z,15.77
2022-12-05T04:09:37.225Z,12.67
2022-12-05T04:12:11.565Z,12.47
2022-12-05T04:14:45.985Z,15.83
2022-12-05T04:17:20.328Z,12.27
2022-12-05T04:20:11.525Z,15.70
2022-12-05T04:22:39.526Z,19.90
2022-12-05T04:25:29.022Z,13.00
2022-12-05T04:28:37.205Z,14.00
2022-12-05T04:31:09.603Z,14.90
2022-12-05T04:33:55.754Z,16.37
2022-12-05T04:36:30.439Z,17.20
2022-12-05T04:39:35.599Z,15.77
2022-12-05T04:42:07.652Z,13.70
2022-12-05T04:44:50.200Z,14.83
2022-12-05T04:47:19.934Z,14.10
2022-12-05T04:49:52.179Z,13.37
2022-12-05T04:52:21.918Z,11.73
2022-12-05T04:55:16.135Z,13.30
2022-12-05T04:57:57.910Z,13.57
2022-12-05T05:00:25.026Z,16.60
2022-12-05T05:02:54.696Z,11.93
2022-12-05T05:05:23.222Z,11.53
2022-12-05T05:07:53.292Z,12.43
2022-12-05T05:10:37.331Z,14.67
2022-12-05T05:13:04.273Z,14.17
2022-12-05T05:15:31.129Z,12.37
2022-12-05T05:17:57.878Z,13.17
2022-12-05T05:20:24.759Z,13.37
2022-12-05T05:22:52.428Z,12.70
2022-12-05T05:25:19.806Z,18.47
2022-12-05T05:27:55.529Z,14.17
2022-12-05T05:30:23.585Z,15.93
2022-12-05T05:32:50.687Z,8.37
2022-12-05T05:35:17.812Z,10.03
2022-12-05T05:37:44.533Z,8.33
2022-12-05T05:40:13.314Z,11.87
2022-12-05T05:42:48.076Z,11.57
2022-12-05T05:45:16.411Z,14.57
2022-12-05T05:47:43.905Z,8.60
2022-12-05T05:50:16.331Z,8.77
2022-12-05T05:52:46.379Z,9.67
2022-12-05T05:55:13.208Z,8.43
2022-12-05T05:57:39.898Z,7.60
2022-12-05T06:00:08.043Z,10.27
2022-12-05T06:02:36.155Z,8.90
2022-12-05T06:05:03.724Z,12.93
2022-12-05T06:07:30.646Z,10.07
2022-12-05T06:09:57.845Z,11.23
2022-12-05T06:12:25.051Z,12.23
2022-12-05T06:14:52.766Z,12.10
2022-12-05T06:17:19.667Z,14.60
2022-12-05T06:19:46.540Z,16.20
2022-12-05T06:22:13.407Z,12.13
2022-12-05T06:24:40.130Z,14.40
2022-12-05T06:27:06.893Z,15.60
2022-12-05T06:29:34.566Z,17.43
2022-12-05T06:32:01.958Z,13.87
2022-12-05T06:34:29.404Z,12.30
2022-12-05T06:36:56.109Z,9.60
2022-12-05T06:39:22.971Z,11.33
2022-12-05T06:41:49.677Z,12.23
2022-12-05T06:44:16.366Z,13.57
2022-12-05T06:46:43.072Z,14.17
2022-12-05T06:49:10.457Z,11.50
2022-12-05T06:51:37.354Z,10.03
2022-12-05T06:54:04.231Z,12.20
2022-12-05T06:56:30.980Z,10.30
2022-12-05T06:58:58.085Z,13.50
2022-12-05T07:01:43.888Z,9.83
2022-12-05T07:04:15.441Z,12.70
2022-12-05T07:06:49.940Z,11.13
2022-12-05T07:09:22.572Z,10.07
2022-12-05T07:11:50.764Z,10.37
2022-12-05T07:14:45.979Z,13.03
2022-12-05T07:17:05.462Z,13.10
2022-12-05T07:19:32.168Z,10.17
2022-12-05T07:21:58.913Z,12.13
2022-12-05T07:24:25.909Z,11.57
2022-12-05T07:26:52.594Z,10.73
2022-12-05T07:29:19.325Z,11.40
2022-12-05T07:31:46.181Z,9.77
2022-12-05T07:34:12.960Z,12.63
2022-12-05T07:36:40.068Z,10.77
2022-12-05T07:39:06.772Z,12.20
2022-12-05T07:41:33.699Z,9.73
2022-12-05T07:44:00.569Z,9.57
2022-12-05T07:46:29.032Z,17.20
2022-12-05T07:48:55.794Z,11.60
2022-12-05T07:51:22.978Z,13.07
2022-12-05T07:53:50.209Z,13.87
2022-12-05T07:56:18.360Z,9.77
2022-12-05T07:58:48.011Z,13.27
2022-12-05T08:01:16.563Z,11.33
2022-12-05T08:03:44.130Z,13.67
2022-12-05T08:06:15.105Z,9.73
2022-12-05T08:08:41.987Z,14.03
2022-12-05T08:11:15.921Z,12.13
2022-12-05T08:13:43.524Z,9.50
2022-12-05T08:16:12.858Z,15.33
2022-12-05T08:18:40.318Z,8.47
2022-12-05T08:21:09.808Z,14.80
2022-12-05T08:23:37.634Z,10.97
2022-12-05T08:26:15.586Z,14.13
2022-12-05T08:28:43.430Z,13.47
2022-12-05T08:31:13.279Z,13.50
2022-12-05T08:33:40.113Z,12.33
2022-12-05T08:36:09.650Z,7.30
2022-12-05T08:38:37.171Z,8.67
2022-12-05T08:41:06.772Z,9.00
2022-12-05T08:43:33.868Z,9.97
2022-12-05T08:46:01.142Z,10.53
2022-12-05T08:48:30.031Z,8.73
2022-12-05T08:50:57.650Z,9.77
2022-12-05T08:53:24.635Z,11.07
2022-12-05T08:55:51.352Z,12.87
2022-12-05T08:58:18.479Z,8.87
2022-12-05T09:00:45.221Z,9.27
2022-12-05T09:03:12.904Z,8.27
2022-12-05T09:05:39.917Z,9.63
2022-12-05T09:08:06.811Z,12.23
2022-12-05T09:10:33.975Z,15.57
2022-12-05T09:13:00.683Z,12.63
2022-12-05T09:15:27.731Z,10.43
2022-12-05T09:17:54.715Z,12.80
2022-12-05T09:20:21.423Z,18.23
2022-12-05T09:22:48.248Z,12.70
2022-12-05T09:25:14.971Z,16.33
2022-12-05T09:27:41.696Z,21.50
2022-12-05T09:30:09.376Z,15.20
2022-12-05T09:32:36.147Z,16.60
2022-12-05T09:35:03.168Z,13.47
2022-12-05T09:37:39.159Z,12.97
2022-12-05T09:40:09.106Z,12.57
2022-12-05T09:42:57.602Z,17.97
2022-12-05T09:45:40.266Z,18.70
2022-12-05T09:48:21.703Z,16.00
2022-12-05T09:51:02.488Z,18.87
2022-12-05T09:53:34.098Z,18.73
2022-12-05T09:56:09.810Z,14.73
2022-12-05T09:58:50.416Z,20.93
2022-12-05T10:01:27.642Z,20.40
2022-12-05T10:04:20.184Z,21.03
2022-12-05T10:07:07.276Z,16.47
2022-12-05T10:09:39.793Z,18.33
2022-12-05T10:12:20.271Z,21.03
2022-12-05T10:15:23.253Z,17.53
2022-12-05T10:17:59.725Z,15.87
2022-12-05T10:20:33.768Z,20.50
2022-12-05T10:23:34.533Z,17.37
2022-12-05T10:26:07.857Z,17.40
2022-12-05T10:28:44.851Z,15.90
2022-12-05T10:31:17.006Z,19.07
2022-12-05T10:34:02.525Z,14.77
2022-12-05T10:36:30.562Z,13.30
2022-12-05T10:38:58.834Z,18.43
2022-12-05T10:41:25.644Z,19.10
2022-12-05T10:43:52.597Z,20.03
2022-12-05T10:46:19.849Z,17.97
2022-12-05T10:48:46.831Z,20.17
2022-12-05T10:51:17.925Z,23.10
2022-12-05T10:53:51.126Z,29.77
2022-12-05T10:56:37.681Z,22.77
2022-12-05T10:59:05.451Z,21.10
2022-12-05T11:01:33.213Z,20.80
2022-12-05T11:04:09.153Z,24.17
2022-12-05T11:06:38.994Z,18.43
2022-12-05T11:09:17.541Z,26.00
2022-12-05T11:12:00.204Z,21.67
2022-12-05T11:14:27.449Z,25.83
2022-12-05T11:16:58.718Z,22.53
2022-12-05T11:19:27.590Z,20.83
2022-12-05T11:21:55.208Z,19.80
2022-12-05T11:24:37.139Z,22.67
2022-12-05T11:27:15.817Z,22.40
2022-12-05T11:29:54.763Z,23.13
2022-12-05T11:32:27.868Z,19.07
2022-12-05T11:35:24.238Z,23.90
2022-12-05T11:38:00.052Z,25.63
2022-12-05T11:40:58.598Z,21.97
2022-12-05T11:43:40.452Z,18.00
2022-12-05T11:46:31.604Z,21.97
2022-12-05T11:49:41.513Z,23.60
2022-12-05T11:52:14.024Z,17.70
2022-12-05T11:55:04.848Z,20.53
2022-12-05T11:57:53.738Z,17.80
2022-12-05T12:00:23.458Z,19.33
2022-12-05T12:02:59.140Z,20.90
2022-12-05T12:06:04.535Z,21.93
2022-12-05T12:09:02.348Z,18.93
2022-12-05T12:11:42.427Z,21.47
2022-12-05T12:14:30.970Z,20.07
2022-12-05T12:17:16.483Z,19.50
2022-12-05T12:20:04.444Z,19.50
2022-12-05T12:23:09.870Z,18.60
2022-12-05T12:26:03.563Z,23.63
2022-12-05T12:28:33.384Z,23.13
2022-12-05T12:31:13.168Z,24.33
2022-12-05T12:33:58.210Z,23.40
2022-12-05T12:36:33.966Z,23.63
2022-12-05T12:39:10.653Z,24.17
2022-12-05T12:41:52.515Z,27.60
2022-12-05T12:44:43.626Z,27.07
2022-12-05T12:47:26.804Z,23.43
2022-12-05T12:50:25.071Z,21.40
2022-12-05T12:53:19.197Z,21.00
2022-12-05T12:56:21.410Z,23.70
2022-12-05T12:58:58.608Z,24.17
2022-12-05T13:01:34.143Z,26.27
2022-12-05T13:04:12.404Z,23.73
2022-12-05T13:06:49.554Z,24.80
2022-12-05T13:09:24.691Z,26.10
2022-12-05T13:11:53.318Z,23.33
2022-12-05T13:14:25.261Z,26.10
2022-12-05T13:16:54.390Z,26.27
2022-12-05T13:19:40.890Z,22.43
2022-12-05T13:22:08.887Z,21.73
2022-12-05T13:24:35.915Z,20.97
2022-12-05T13:27:07.067Z,23.30
2022-12-05T13:29:42.221Z,22.70
2022-12-05T13:32:38.479Z,19.17
2022-12-05T13:35:08.141Z,15.93
2022-12-05T13:37:54.356Z,21.50
2022-12-05T13:40:48.811Z,19.33
2022-12-05T13:43:26.595Z,17.87
2022-12-05T13:46:26.397Z,22.97
2022-12-05T13:49:06.766Z,18.53
2022-12-05T13:51:37.181Z,14.47
2022-12-05T13:54:15.906Z,17.40
2022-12-05T13:57:03.387Z,17.73
2022-12-05T14:03:33.350Z,15.67
2022-12-05T14:06:00.391Z,20.03
2022-12-05T14:08:35.774Z,18.07
2022-12-05T14:11:07.653Z,16.73
2022-12-05T14:13:35.327Z,15.13
2022-12-05T14:16:24.063Z,10.37
2022-12-05T14:19:09.362Z,13.20
2022-12-05T14:21:46.273Z,11.13
2022-12-05T14:24:36.010Z,12.77
2022-12-05T14:27:07.408Z,16.60
2022-12-05T14:29:37.719Z,17.70
2022-12-05T14:32:19.713Z,16.60
2022-12-05T14:34:58.196Z,18.50
2022-12-05T14:37:46.872Z,17.47
2022-12-05T14:40:28.614Z,15.07
2022-12-05T14:43:23.092Z,16.33
2022-12-05T14:46:04.103Z,13.23
2022-12-05T14:48:52.178Z,17.40
2022-12-05T14:51:31.043Z,16.03
2022-12-05T14:54:16.319Z,13.10
2022-12-05T14:56:50.393Z,14.87
2022-12-05T14:59:29.840Z,13.53
2022-12-05T15:02:00.891Z,12.60
2022-12-05T15:04:42.870Z,11.33
2022-12-05T15:07:13.131Z,13.77
2022-12-05T15:10:13.960Z,14.70
2022-12-05T15:12:51.530Z,18.00
2022-12-05T15:15:24.199Z,12.80
2022-12-05T15:17:58.090Z,11.83
2022-12-05T15:20:25.665Z,13.07
2022-12-05T15:22:52.508Z,10.97
2022-12-05T15:25:29.084Z,9.97
2022-12-05T15:28:17.252Z,9.23
2022-12-05T15:30:44.063Z,9.20
2022-12-05T15:33:13.416Z,8.30
2022-12-05T15:35:41.173Z,11.67
2022-12-05T15:38:25.473Z,8.67
2022-12-05T15:40:54.024Z,10.23
2022-12-05T15:43:34.503Z,13.33
2022-12-05T15:46:28.065Z,13.13
2022-12-05T15:48:56.904Z,11.63
2022-12-05T15:51:42.680Z,12.13
2022-12-05T15:54:15.368Z,11.03
2022-12-05T15:57:00.089Z,9.37
2022-12-05T15:59:38.794Z,8.17
2022-12-05T16:02:16.824Z,12.80
2022-12-05T16:04:50.095Z,11.77
2022-12-05T16:07:17.230Z,10.90
2022-12-05T16:09:46.056Z,8.50
2022-12-05T16:12:24.337Z,9.10
2022-12-05T16:15:00.072Z,6.83
2022-12-05T16:17:30.550Z,11.90
2022-12-05T16:20:33.963Z,9.17
2022-12-05T16:23:20.968Z,7.00
2022-12-05T16:25:48.659Z,6.70
2022-12-05T16:28:18.856Z,8.37
2022-12-05T16:31:00.756Z,6.00
2022-12-05T16:33:30.220Z,8.03
2022-12-05T16:36:07.077Z,8.67
2022-12-05T16:38:34.063Z,7.47
2022-12-05T16:41:03.237Z,12.67
2022-12-05T16:43:43.602Z,11.10
2022-12-05T16:46:13.379Z,6.17
2022-12-05T16:49:19.116Z,9.50
2022-12-05T16:51:54.931Z,10.57
2022-12-05T16:54:21.641Z,6.53
2022-12-05T16:56:48.428Z,7.53
2022-12-05T16:59:22.870Z,6.73
2022-12-05T17:01:49.702Z,7.57
2022-12-05T17:04:16.488Z,10.37
2022-12-05T17:06:43.338Z,7.17
2022-12-05T17:09:10.083Z,8.37
2022-12-05T17:11:40.424Z,8.30
2022-12-05T17:14:09.851Z,8.17
2022-12-05T17:16:36.578Z,11.43
2022-12-05T17:19:03.307Z,10.83
2022-12-05T17:21:33.382Z,5.80
2022-12-05T17:24:00.946Z,5.70
2022-12-05T17:26:27.833Z,11.53
2022-12-05T17:28:54.591Z,5.80
2022-12-05T17:31:23.568Z,8.70
2022-12-05T17:33:52.270Z,12.00
2022-12-05T17:36:22.327Z,8.07
2022-12-05T17:38:49.274Z,8.83
2022-12-05T17:41:24.093Z,6.73
2022-12-05T17:43:51.643Z,7.07
2022-12-05T17:46:21.881Z,13.97
2022-12-05T17:48:50.670Z,7.47
2022-12-05T17:51:18.140Z,11.27
2022-12-05T17:53:45.640Z,9.60
2022-12-05T17:56:13.287Z,9.20
2022-12-05T17:58:40.864Z,11.27
2022-12-05T18:01:08.108Z,10.97
2022-12-05T18:03:34.896Z,11.87
2022-12-05T18:06:05.154Z,12.47
2022-12-05T18:08:31.846Z,11.23
2022-12-05T18:10:58.590Z,11.93
2022-12-05T18:13:25.249Z,12.00
2022-12-05T18:15:58.049Z,15.83
2022-12-05T18:18:27.433Z,9.57
2022-12-05T18:20:54.208Z,15.87
2022-12-05T18:23:23.669Z,15.73
2022-12-05T18:25:59.034Z,15.03
2022-12-05T18:28:26.596Z,18.70
2022-12-05T18:31:04.605Z,16.77
2022-12-05T18:33:32.387Z,15.37
2022-12-05T18:36:15.559Z,11.93
2022-12-05T18:38:43.492Z,15.27
2022-12-05T18:41:10.373Z,16.30
2022-12-05T18:43:46.805Z,11.40
2022-12-05T18:46:13.719Z,14.30
2022-12-05T18:48:44.833Z,12.97
2022-12-05T18:51:20.691Z,15.80
2022-12-05T18:53:52.895Z,14.60
2022-12-05T18:56:31.327Z,14.40
2022-12-05T18:59:08.940Z,13.67
2022-12-05T19:01:38.813Z,15.87
2022-12-05T19:04:06.465Z,12.83
2022-12-05T19:06:36.663Z,15.37
2022-12-05T19:09:06.952Z,16.97
2022-12-05T19:11:34.206Z,14.00
2022-12-05T19:14:04.122Z,13.93
2022-12-05T19:16:32.712Z,14.97
2022-12-05T19:19:01.321Z,13.20
2022-12-05T19:21:31.728Z,15.60
2022-12-05T19:23:59.312Z,12.40
2022-12-05T19:26:26.592Z,13.63
2022-12-05T19:28:53.432Z,18.57
2022-12-05T19:31:22.730Z,10.60
2022-12-05T19:33:52.209Z,12.43
2022-12-05T19:36:35.541Z,14.27
2022-12-05T19:39:08.637Z,11.97
2022-12-05T19:41:45.075Z,14.53
2022-12-05T19:44:12.536Z,10.83
2022-12-05T19:46:39.814Z,15.80
2022-12-05T19:49:08.622Z,12.53
2022-12-05T19:51:35.688Z,12.87
2022-12-05T19:54:04.706Z,12.53
2022-12-05T19:56:33.307Z,14.07
2022-12-05T19:59:00.508Z,11.67
2022-12-05T20:01:29.758Z,10.50
2022-12-05T20:03:59.913Z,12.77
2022-12-05T20:06:31.138Z,14.03
2022-12-05T20:08:59.107Z,13.67
2022-12-05T20:11:26.846Z,9.90
2022-12-05T20:13:55.253Z,12.03
2022-12-05T20:16:25.714Z,12.20
2022-12-05T20:18:53.509Z,14.20
2022-12-05T20:21:24.670Z,9.63
2022-12-05T20:23:53.063Z,10.03
2022-12-05T20:26:22.527Z,14.67
2022-12-05T20:28:49.398Z,11.97
2022-12-05T20:31:19.058Z,14.37
2022-12-05T20:33:46.549Z,12.77
2022-12-05T20:36:19.506Z,12.03
2022-12-05T20:38:46.748Z,12.43
2022-12-05T20:41:16.410Z,12.37
2022-12-05T20:43:44.951Z,10.40
2022-12-05T20:46:17.587Z,14.03
2022-12-05T20:48:45.176Z,10.80
2022-12-05T20:51:14.415Z,14.90
2022-12-05T20:53:43.104Z,12.73
2022-12-05T20:56:12.372Z,11.53
2022-12-05T20:58:40.473Z,13.87
2022-12-05T21:01:10.152Z,11.47
2022-12-05T21:03:39.481Z,9.73
2022-12-05T21:06:08.475Z,9.00
2022-12-05T21:08:35.400Z,14.27
2022-12-05T21:11:02.326Z,11.37
2022-12-05T21:13:29.164Z,13.03
2022-12-05T21:15:56.071Z,15.03
2022-12-05T21:18:22.904Z,12.03
2022-12-05T21:21:01.611Z,12.20
2022-12-05T21:23:28.627Z,12.23
2022-12-05T21:25:55.652Z,14.67
2022-12-05T21:28:23.886Z,10.97
2022-12-05T21:30:50.956Z,14.23
2022-12-05T21:33:18.278Z,11.20
2022-12-05T21:35:54.715Z,11.70
2022-12-05T21:38:21.888Z,12.93
2022-12-05T21:40:49.043Z,12.77
2022-12-05T21:43:16.941Z,12.47
2022-12-05T21:45:46.656Z,15.13
2022-12-05T21:48:16.059Z,11.07
2022-12-05T21:50:43.062Z,15.27
2022-12-05T21:53:10.226Z,12.70
2022-12-05T21:55:37.052Z,12.23
2022-12-05T21:58:04.139Z,11.70
2022-12-05T22:00:31.244Z,13.50
2022-12-05T22:02:58.279Z,13.67
2022-12-05T22:05:25.534Z,12.80
2022-12-05T22:07:53.479Z,14.37
2022-12-05T22:10:20.813Z,13.23
2022-12-05T22:12:48.063Z,13.43
2022-12-05T22:15:15.163Z,12.03
2022-12-05T22:17:42.023Z,12.17
2022-12-05T22:20:09.339Z,14.00
2022-12-05T22:22:36.440Z,18.30
2022-12-05T22:25:04.624Z,14.03
2022-12-05T22:27:31.716Z,11.37
2022-12-05T22:29:59.289Z,11.13
2022-12-05T22:32:27.315Z,9.63
2022-12-05T22:34:54.749Z,8.27
2022-12-05T22:37:24.029Z,13.23
2022-12-05T22:39:50.832Z,10.90
2022-12-05T22:42:17.971Z,10.37
2022-12-05T22:44:45.196Z,9.67
2022-12-05T22:47:12.533Z,9.90
2022-12-05T22:49:39.566Z,11.53
2022-12-05T22:52:06.523Z,11.57
2022-12-05T22:54:33.895Z,11.87
2022-12-05T22:57:00.958Z,9.97
2022-12-05T22:59:28.013Z,12.40
2022-12-05T23:01:55.155Z,11.50
2022-12-05T23:04:22.227Z,10.07
2022-12-05T23:06:49.081Z,12.73
2022-12-05T23:09:15.779Z,9.67
2022-12-05T23:11:42.817Z,14.10
2022-12-05T23:14:09.650Z,12.30
2022-12-05T23:16:36.530Z,12.40
2022-12-05T23:19:05.610Z,14.23
2022-12-05T23:21:34.286Z,11.73
2022-12-05T23:24:04.581Z,15.93
2022-12-05T23:26:35.335Z,12.77
2022-12-05T23:29:02.777Z,12.47
2022-12-05T23:31:29.633Z,10.97
2022-12-05T23:34:02.645Z,11.37
2022-12-05T23:36:30.662Z,13.73
2022-12-05T23:38:57.489Z,10.60
2022-12-05T23:41:24.392Z,10.70
2022-12-05T23:43:52.125Z,16.93
2022-12-05T23:46:22.440Z,11.90
2022-12-05T23:48:49.813Z,12.20
2022-12-05T23:51:22.260Z,14.10
2022-12-05T23:53:53.199Z,15.53
2022-12-05T23:56:22.599Z,10.43
2022-12-05T23:58:49.616Z,11.43
